Time,TemperatureF,DewpointF,PressureIn,WindDirection,WindDirectionDegrees,WindSpeedMPH,WindSpeedGustMPH,Humidity,HourlyPrecipIn,Conditions,Clouds,dailyrainin,SoftwareType,DateUTC
2013-06-20 00:02:00,67.0,53.0,30.13,South,169,3.0,6.0,60,0.00,,,0.01,,2013-06-20 04:02:00,
2013-06-20 00:11:00,67.0,53.0,30.13,South,169,3.0,6.0,60,0.00,,,0.01,,2013-06-20 04:11:00,
2013-06-20 00:23:00,66.0,50.0,30.15,West,262,5.0,7.0,56,0.00,,,0.01,,2013-06-20 04:23:00,
2013-06-20 00:34:00,66.0,50.0,30.15,WSW,248,3.0,4.0,57,0.00,,,0.01,,2013-06-20 04:34:00,
2013-06-20 00:44:00,66.0,50.0,30.15,WSW,248,3.0,4.0,57,0.00,,,0.01,,2013-06-20 04:44:00,
2013-06-20 00:54:00,66.0,50.0,30.15,WSW,248,3.0,4.0,57,0.00,,,0.01,,2013-06-20 04:54:00,
2013-06-20 01:02:00,66.0,51.0,30.15,WSW,252,3.0,5.0,58,0.00,,,0.01,,2013-06-20 05:02:00,
2013-06-20 01:12:00,66.0,52.0,30.15,SW,233,0.0,5.0,60,0.00,,,0.01,,2013-06-20 05:12:00,
2013-06-20 01:22:00,65.0,51.0,30.15,SW,233,0.0,4.0,61,0.00,,,0.01,,2013-06-20 05:22:00,
2013-06-20 01:33:00,65.0,51.0,30.15,SW,233,0.0,4.0,61,0.00,,,0.01,,2013-06-20 05:33:00,
2013-06-20 01:44:00,65.0,51.0,30.16,SSW,213,3.0,5.0,61,0.00,,,0.00,,2013-06-20 05:44:00,
2013-06-20 01:53:00,64.0,51.0,30.16,SSW,197,0.0,4.0,62,0.00,,,0.00,,2013-06-20 05:53:00,
2013-06-20 02:02:00,64.0,51.0,30.16,SSW,197,0.0,4.0,62,0.00,,,0.00,,2013-06-20 06:02:00,
2013-06-20 02:11:00,64.0,51.0,30.16,SSW,197,0.0,4.0,62,0.00,,,0.00,,2013-06-20 06:11:00,
2013-06-20 02:22:00,64.0,51.0,30.16,South,188,0.0,4.0,63,0.00,,,0.00,,2013-06-20 06:22:00,
2013-06-20 02:34:00,64.0,52.0,30.17,SSW,193,0.0,3.0,64,0.00,,,0.00,,2013-06-20 06:34:00,
2013-06-20 02:43:00,64.0,52.0,30.17,SSW,193,0.0,3.0,64,0.00,,,0.00,,2013-06-20 06:43:00,
2013-06-20 02:53:00,64.0,52.0,30.17,SSW,193,0.0,3.0,64,0.00,,,0.00,,2013-06-20 06:53:00,
2013-06-20 03:01:00,63.0,51.0,30.16,South,188,1.0,3.0,65,0.00,,,0.00,,2013-06-20 07:01:00,
2013-06-20 03:12:00,63.0,51.0,30.16,South,188,1.0,3.0,65,0.00,,,0.00,,2013-06-20 07:12:00,
2013-06-20 03:23:00,63.0,51.0,30.16,South,188,1.0,3.0,65,0.00,,,0.00,,2013-06-20 07:23:00,
2013-06-20 03:34:00,63.0,51.0,30.17,South,190,2.0,2.0,66,0.00,,,0.00,,2013-06-20 07:34:00,
2013-06-20 03:44:00,63.0,51.0,30.18,SSW,207,0.0,5.0,66,0.00,,,0.00,,2013-06-20 07:44:00,
2013-06-20 03:53:00,63.0,51.0,30.18,SSW,207,0.0,5.0,66,0.00,,,0.00,,2013-06-20 07:53:00,
2013-06-20 04:02:00,63.0,51.0,30.18,SSW,210,3.0,5.0,66,0.00,,,0.00,,2013-06-20 08:02:00,
2013-06-20 04:11:00,63.0,51.0,30.18,SSW,210,3.0,5.0,66,0.00,,,0.00,,2013-06-20 08:11:00,
2013-06-20 04:22:00,63.0,51.0,30.18,SSW,210,3.0,5.0,66,0.00,,,0.00,,2013-06-20 08:22:00,
2013-06-20 04:34:00,62.0,51.0,30.18,SSW,210,0.0,3.0,67,0.00,,,0.00,,2013-06-20 08:34:00,
2013-06-20 04:43:00,62.0,52.0,30.18,SSW,209,0.0,0.0,69,0.00,,,0.00,,2013-06-20 08:43:00,
2013-06-20 04:53:00,62.0,52.0,30.18,SSW,208,0.0,0.0,70,0.00,,,0.00,,2013-06-20 08:53:00,
2013-06-20 05:02:00,62.0,52.0,30.18,SSW,208,0.0,0.0,70,0.00,,,0.00,,2013-06-20 09:02:00,
2013-06-20 05:12:00,61.0,52.0,30.18,SSW,207,1.0,1.0,71,0.00,,,0.00,,2013-06-20 09:12:00,
2013-06-20 05:22:00,61.0,52.0,30.19,SSW,206,0.0,3.0,73,0.00,,,0.00,,2013-06-20 09:22:00,
2013-06-20 05:33:00,61.0,52.0,30.19,SSW,206,0.0,3.0,73,0.00,,,0.00,,2013-06-20 09:33:00,
2013-06-20 05:42:00,61.0,53.0,30.18,SSW,210,1.0,1.0,74,0.00,,,0.00,,2013-06-20 09:42:00,
2013-06-20 05:52:00,61.0,53.0,30.18,SSW,210,1.0,1.0,74,0.00,,,0.00,,2013-06-20 09:52:00,
2013-06-20 06:02:00,61.0,53.0,30.19,SSW,207,1.0,3.0,75,0.00,,,0.00,,2013-06-20 10:02:00,
2013-06-20 06:11:00,61.0,53.0,30.19,SSW,207,1.0,3.0,75,0.00,,,0.00,,2013-06-20 10:11:00,
2013-06-20 06:22:00,61.0,53.0,30.20,SSW,205,0.0,3.0,75,0.00,,,0.00,,2013-06-20 10:22:00,
2013-06-20 06:34:00,61.0,53.0,30.20,SSW,205,0.0,3.0,75,0.00,,,0.00,,2013-06-20 10:34:00,
2013-06-20 06:43:00,61.0,53.0,30.20,SSW,207,0.0,3.0,75,0.00,,,0.00,,2013-06-20 10:43:00,
2013-06-20 06:53:00,61.0,53.0,30.20,SSW,207,0.0,3.0,75,0.00,,,0.00,,2013-06-20 10:53:00,
2013-06-20 07:02:00,62.0,53.0,30.21,SSW,209,0.0,1.0,72,0.00,,,0.00,,2013-06-20 11:02:00,
2013-06-20 07:12:00,62.0,53.0,30.21,SSW,209,0.0,1.0,72,0.00,,,0.00,,2013-06-20 11:12:00,
2013-06-20 07:22:00,63.0,54.0,30.21,SSW,206,0.0,2.0,72,0.00,,,0.00,,2013-06-20 11:22:00,
2013-06-20 07:34:00,63.0,54.0,30.21,SSW,206,0.0,2.0,72,0.00,,,0.00,,2013-06-20 11:34:00,
2013-06-20 07:43:00,64.0,54.0,30.22,SW,221,0.0,3.0,69,0.00,,,0.00,,2013-06-20 11:43:00,
2013-06-20 07:53:00,64.0,53.0,30.23,SW,218,1.0,3.0,68,0.00,,,0.00,,2013-06-20 11:53:00,
2013-06-20 08:02:00,64.0,53.0,30.23,SW,218,1.0,3.0,68,0.00,,,0.00,,2013-06-20 12:02:00,
2013-06-20 08:12:00,65.0,54.0,30.23,SW,225,1.0,3.0,67,0.00,,,0.00,,2013-06-20 12:12:00,
2013-06-20 08:22:00,65.0,54.0,30.23,SW,224,2.0,5.0,67,0.00,,,0.00,,2013-06-20 12:22:00,
2013-06-20 08:34:00,66.0,54.0,30.23,SW,234,2.0,3.0,65,0.00,,,0.00,,2013-06-20 12:34:00,
2013-06-20 08:43:00,67.0,54.0,30.23,WSW,244,1.0,4.0,63,0.00,,,0.00,,2013-06-20 12:43:00,
2013-06-20 08:53:00,67.0,54.0,30.23,WSW,244,1.0,4.0,63,0.00,,,0.00,,2013-06-20 12:53:00,
2013-06-20 09:02:00,68.0,54.0,30.23,West,271,3.0,6.0,62,0.00,,,0.00,,2013-06-20 13:02:00,
2013-06-20 09:11:00,68.0,54.0,30.23,West,271,3.0,6.0,62,0.00,,,0.00,,2013-06-20 13:11:00,
2013-06-20 09:22:00,68.0,54.0,30.23,West,271,3.0,6.0,62,0.00,,,0.00,,2013-06-20 13:22:00,
2013-06-20 09:33:00,68.0,54.0,30.23,West,271,3.0,6.0,62,0.00,,,0.00,,2013-06-20 13:33:00,
2013-06-20 09:43:00,71.0,54.0,30.23,WNW,288,3.0,6.0,54,0.00,,,0.00,,2013-06-20 13:43:00,
2013-06-20 09:53:00,73.0,54.0,30.22,WNW,284,0.0,3.0,51,0.00,,,0.00,,2013-06-20 13:53:00,
2013-06-20 10:02:00,73.0,54.0,30.22,WNW,284,0.0,3.0,51,0.00,,,0.00,,2013-06-20 14:02:00,
2013-06-20 10:11:00,73.0,54.0,30.22,WNW,284,0.0,3.0,51,0.00,,,0.00,,2013-06-20 14:11:00,
2013-06-20 10:22:00,74.0,54.0,30.22,South,181,2.0,10.0,49,0.00,,,0.00,,2013-06-20 14:22:00,
2013-06-20 10:32:00,74.0,54.0,30.22,South,181,2.0,10.0,49,0.00,,,0.00,,2013-06-20 14:32:00,
2013-06-20 10:42:00,74.0,54.0,30.22,South,181,2.0,10.0,49,0.00,,,0.00,,2013-06-20 14:42:00,
2013-06-20 10:53:00,76.0,53.0,30.22,WSW,252,0.0,8.0,45,0.00,,,0.00,,2013-06-20 14:53:00,
2013-06-20 11:02:00,76.0,53.0,30.22,WSW,252,0.0,8.0,45,0.00,,,0.00,,2013-06-20 15:02:00,
2013-06-20 11:11:00,76.0,53.0,30.22,South,185,6.0,8.0,45,0.00,,,0.00,,2013-06-20 15:11:00,
2013-06-20 11:22:00,76.0,53.0,30.23,SSW,208,3.0,11.0,45,0.00,,,0.00,,2013-06-20 15:22:00,
2013-06-20 11:33:00,76.0,53.0,30.23,SSW,208,3.0,11.0,45,0.00,,,0.00,,2013-06-20 15:33:00,
2013-06-20 11:43:00,77.0,52.0,30.23,SW,216,3.0,10.0,42,0.00,,,0.00,,2013-06-20 15:43:00,
2013-06-20 11:53:00,77.0,52.0,30.23,SW,216,3.0,10.0,42,0.00,,,0.00,,2013-06-20 15:53:00,
2013-06-20 12:02:00,78.0,54.0,30.23,South,183,3.0,8.0,43,0.00,,,0.00,,2013-06-20 16:02:00,
2013-06-20 12:12:00,78.0,53.0,30.23,SSW,210,2.0,10.0,42,0.00,,,0.00,,2013-06-20 16:12:00,
2013-06-20 12:22:00,78.0,53.0,30.23,SSW,210,2.0,10.0,42,0.00,,,0.00,,2013-06-20 16:22:00,
2013-06-20 12:33:00,78.0,53.0,30.23,SSW,210,2.0,10.0,42,0.00,,,0.00,,2013-06-20 16:33:00,
2013-06-20 12:43:00,79.0,54.0,30.23,SSW,207,4.0,5.0,42,0.00,,,0.00,,2013-06-20 16:43:00,
2013-06-20 12:52:00,79.0,54.0,30.23,SSW,207,4.0,5.0,42,0.00,,,0.00,,2013-06-20 16:52:00,
2013-06-20 13:02:00,80.0,55.0,30.22,SW,217,1.0,6.0,42,0.00,,,0.00,,2013-06-20 17:02:00,
2013-06-20 13:12:00,79.0,50.0,30.22,West,281,3.0,6.0,36,0.00,,,0.00,,2013-06-20 17:12:00,
2013-06-20 13:22:00,80.0,51.0,30.22,South,172,8.0,12.0,37,0.00,,,0.00,,2013-06-20 17:22:00,
2013-06-20 13:32:00,80.0,51.0,30.22,South,172,8.0,12.0,37,0.00,,,0.00,,2013-06-20 17:32:00,
2013-06-20 13:43:00,80.0,51.0,30.22,WNW,294,3.0,11.0,36,0.00,,,0.00,,2013-06-20 17:43:00,
2013-06-20 13:53:00,80.0,51.0,30.22,WNW,294,3.0,11.0,36,0.00,,,0.00,,2013-06-20 17:53:00,
2013-06-20 14:01:00,80.0,51.0,30.22,SSW,212,2.0,7.0,36,0.00,,,0.00,,2013-06-20 18:01:00,
2013-06-20 14:12:00,80.0,55.0,30.21,ENE,78,0.0,5.0,42,0.00,,,0.00,,2013-06-20 18:12:00,
2013-06-20 14:22:00,79.0,52.0,30.21,NW,326,0.0,5.0,39,0.00,,,0.00,,2013-06-20 18:22:00,
2013-06-20 14:33:00,79.0,55.0,30.21,NW,318,1.0,2.0,44,0.00,,,0.00,,2013-06-20 18:33:00,
2013-06-20 14:43:00,79.0,55.0,30.21,NW,318,1.0,2.0,44,0.00,,,0.00,,2013-06-20 18:43:00,
2013-06-20 14:53:00,79.0,55.0,30.21,NW,318,1.0,2.0,44,0.00,,,0.00,,2013-06-20 18:53:00,
2013-06-20 15:01:00,78.0,57.0,30.21,SSW,193,2.0,13.0,49,0.00,,,0.00,,2013-06-20 19:01:00,
2013-06-20 15:11:00,80.0,57.0,30.20,SE,129,8.0,12.0,46,0.00,,,0.00,,2013-06-20 19:11:00,
2013-06-20 15:22:00,80.0,57.0,30.20,SE,129,8.0,12.0,46,0.00,,,0.00,,2013-06-20 19:22:00,
2013-06-20 15:34:00,78.0,56.0,30.19,SSE,159,8.0,13.0,47,0.00,,,0.00,,2013-06-20 19:34:00,
2013-06-20 15:43:00,77.0,55.0,30.20,SE,124,10.0,11.0,47,0.00,,,0.00,,2013-06-20 19:43:00,
2013-06-20 15:52:00,77.0,55.0,30.20,SE,124,10.0,11.0,47,0.00,,,0.00,,2013-06-20 19:52:00,
2013-06-20 16:02:00,77.0,56.0,30.20,ESE,104,3.0,12.0,48,0.00,,,0.00,,2013-06-20 20:02:00,
2013-06-20 16:11:00,77.0,56.0,30.20,ESE,104,3.0,12.0,48,0.00,,,0.00,,2013-06-20 20:11:00,
2013-06-20 16:22:00,77.0,56.0,30.20,ESE,104,3.0,12.0,48,0.00,,,0.00,,2013-06-20 20:22:00,
2013-06-20 16:33:00,77.0,56.0,30.20,ESE,104,3.0,12.0,48,0.00,,,0.00,,2013-06-20 20:33:00,
2013-06-20 16:43:00,78.0,56.0,30.20,SE,131,5.0,10.0,47,0.00,,,0.00,,2013-06-20 20:43:00,
2013-06-20 16:53:00,77.0,55.0,30.20,SE,125,6.0,13.0,47,0.00,,,0.00,,2013-06-20 20:53:00,